sensor_id;sensor_type;location;lat;lon;timestamp;pressure;altitude;pressure_sealevel;temperature;humidity
51530;BME280;37613;51.788;21.582;2022-09-23T00:01:56;100506.72;;;7.21;81.43
51530;BME280;37613;51.788;21.582;2022-09-23T00:15:15;100505.43;;;7.02;81.52
51530;BME280;37613;51.788;21.582;2022-09-23T00:19:26;100511.73;;;6.98;81.41
51530;BME280;37613;51.788;21.582;2022-09-23T00:23:58;100509.71;;;6.95;81.64
51530;BME280;37613;51.788;21.582;2022-09-23T00:28:05;100507.89;;;6.94;81.64
51530;BME280;37613;51.788;21.582;2022-09-23T00:42:20;100505.97;;;6.97;82.61
51530;BME280;37613;51.788;21.582;2022-09-23T00:47:07;100504.52;;;6.95;82.60
51530;BME280;37613;51.788;21.582;2022-09-23T00:52:06;100503.30;;;6.97;82.65
51530;BME280;37613;51.788;21.582;2022-09-23T00:57:01;100505.96;;;7.01;82.62
51530;BME280;37613;51.788;21.582;2022-09-23T01:11:56;100507.56;;;7.11;83.02
51530;BME280;37613;51.788;21.582;2022-09-23T01:15:55;100505.41;;;7.09;83.02
51530;BME280;37613;51.788;21.582;2022-09-23T01:25:33;100499.71;;;7.11;83.19
51530;BME280;37613;51.788;21.582;2022-09-23T01:31:08;100500.29;;;7.13;83.34
51530;BME280;37613;51.788;21.582;2022-09-23T01:35:00;100505.24;;;7.13;83.19
51530;BME280;37613;51.788;21.582;2022-09-23T01:48:30;100498.11;;;7.17;83.25
51530;BME280;37613;51.788;21.582;2022-09-23T01:52:42;100499.36;;;7.14;83.21
51530;BME280;37613;51.788;21.582;2022-09-23T02:11:10;100492.56;;;6.94;83.00
51530;BME280;37613;51.788;21.582;2022-09-23T02:15:51;100488.88;;;6.87;82.92
51530;BME280;37613;51.788;21.582;2022-09-23T02:29:48;100477.17;;;6.59;82.68
51530;BME280;37613;51.788;21.582;2022-09-23T02:38:39;100489.27;;;6.47;82.46
51530;BME280;37613;51.788;21.582;2022-09-23T02:58:11;100495.68;;;6.00;83.03
51530;BME280;37613;51.788;21.582;2022-09-23T03:19:16;100478.09;;;5.80;83.63
51530;BME280;37613;51.788;21.582;2022-09-23T03:32:25;100485.91;;;5.79;83.75
51530;BME280;37613;51.788;21.582;2022-09-23T03:42:56;100485.45;;;5.73;83.94
51530;BME280;37613;51.788;21.582;2022-09-23T03:47:14;100487.18;;;5.73;84.09
51530;BME280;37613;51.788;21.582;2022-09-23T03:56:59;100497.73;;;5.75;84.33
51530;BME280;37613;51.788;21.582;2022-09-23T04:01:45;100499.80;;;5.79;84.43
51530;BME280;37613;51.788;21.582;2022-09-23T04:21:05;100496.00;;;5.84;84.35
51530;BME280;37613;51.788;21.582;2022-09-23T04:25:30;100493.88;;;5.87;84.53
51530;BME280;37613;51.788;21.582;2022-09-23T04:30:36;100490.64;;;5.93;84.73
51530;BME280;37613;51.788;21.582;2022-09-23T04:35:03;100488.45;;;5.96;84.88
51530;BME280;37613;51.788;21.582;2022-09-23T04:50:01;100490.02;;;6.10;84.95
51530;BME280;37613;51.788;21.582;2022-09-23T05:04:55;100486.17;;;6.28;85.39
51530;BME280;37613;51.788;21.582;2022-09-23T05:09:54;100493.66;;;6.36;85.30
51530;BME280;37613;51.788;21.582;2022-09-23T05:14:58;100490.97;;;6.43;85.45
51530;BME280;37613;51.788;21.582;2022-09-23T05:20:05;100489.99;;;6.53;85.59
51530;BME280;37613;51.788;21.582;2022-09-23T05:44:07;100503.35;;;7.05;86.07
51530;BME280;37613;51.788;21.582;2022-09-23T05:49:02;100504.19;;;7.24;86.14
51530;BME280;37613;51.788;21.582;2022-09-23T05:53:13;100501.98;;;7.42;86.15
51530;BME280;37613;51.788;21.582;2022-09-23T05:57:25;100506.06;;;7.50;86.15
51530;BME280;37613;51.788;21.582;2022-09-23T06:01:32;100510.10;;;7.57;86.09
51530;BME280;37613;51.788;21.582;2022-09-23T06:05:36;100508.33;;;7.78;86.50
51530;BME280;37613;51.788;21.582;2022-09-23T06:15:00;100508.94;;;7.87;85.95
51530;BME280;37613;51.788;21.582;2022-09-23T06:24:42;100502.97;;;7.93;86.56
51530;BME280;37613;51.788;21.582;2022-09-23T06:34:47;100511.65;;;8.20;87.37
51530;BME280;37613;51.788;21.582;2022-09-23T06:44:17;100505.50;;;8.48;87.35
51530;BME280;37613;51.788;21.582;2022-09-23T06:49:13;100503.31;;;8.59;87.06
51530;BME280;37613;51.788;21.582;2022-09-23T06:59:12;100505.98;;;8.93;87.18
51530;BME280;37613;51.788;21.582;2022-09-23T07:08:40;100524.08;;;9.35;87.60
51530;BME280;37613;51.788;21.582;2022-09-23T07:12:45;100521.63;;;9.77;87.47
51530;BME280;37613;51.788;21.582;2022-09-23T07:21:42;100522.13;;;10.22;86.10
51530;BME280;37613;51.788;21.582;2022-09-23T07:25:59;100517.81;;;10.39;86.00
51530;BME280;37613;51.788;21.582;2022-09-23T07:35:33;100523.73;;;10.70;85.39
51530;BME280;37613;51.788;21.582;2022-09-23T07:39:51;100513.96;;;10.76;85.42
51530;BME280;37613;51.788;21.582;2022-09-23T07:44:12;100523.67;;;10.95;84.92
51530;BME280;37613;51.788;21.582;2022-09-23T07:48:30;100524.86;;;10.94;84.00
51530;BME280;37613;51.788;21.582;2022-09-23T07:52:54;100533.02;;;10.99;84.23
51530;BME280;37613;51.788;21.582;2022-09-23T07:57:16;100525.48;;;11.14;84.36
51530;BME280;37613;51.788;21.582;2022-09-23T08:10:43;100525.01;;;11.63;83.66
51530;BME280;37613;51.788;21.582;2022-09-23T08:14:56;100524.08;;;11.82;83.43
51530;BME280;37613;51.788;21.582;2022-09-23T08:19:03;100523.99;;;12.04;82.79
51530;BME280;37613;51.788;21.582;2022-09-23T08:23:13;100515.05;;;11.98;80.86
51530;BME280;37613;51.788;21.582;2022-09-23T08:27:23;100512.12;;;11.93;81.54
51530;BME280;37613;51.788;21.582;2022-09-23T08:31:38;100507.50;;;12.19;82.68
51530;BME280;37613;51.788;21.582;2022-09-23T08:35:50;100504.66;;;12.42;81.86
51530;BME280;37613;51.788;21.582;2022-09-23T08:39:58;100504.27;;;12.63;81.74
51530;BME280;37613;51.788;21.582;2022-09-23T08:44:01;100500.83;;;12.52;79.00
51530;BME280;37613;51.788;21.582;2022-09-23T08:48:10;100491.33;;;12.48;79.90
51530;BME280;37613;51.788;21.582;2022-09-23T08:52:34;100492.66;;;12.50;80.46
51530;BME280;37613;51.788;21.582;2022-09-23T08:56:47;100486.17;;;12.49;80.08
51530;BME280;37613;51.788;21.582;2022-09-23T09:01:05;100491.48;;;12.50;80.16
51530;BME280;37613;51.788;21.582;2022-09-23T09:05:10;100485.89;;;12.62;78.31
51530;BME280;37613;51.788;21.582;2022-09-23T09:09:25;100481.15;;;12.74;76.91
51530;BME280;37613;51.788;21.582;2022-09-23T09:13:35;100478.98;;;12.79;75.15
51530;BME280;37613;51.788;21.582;2022-09-23T09:22:58;100472.48;;;12.82;71.82
51530;BME280;37613;51.788;21.582;2022-09-23T09:26:43;100466.92;;;13.07;72.75
51530;BME280;37613;51.788;21.582;2022-09-23T09:30:49;100462.90;;;13.43;73.92
51530;BME280;37613;51.788;21.582;2022-09-23T09:34:57;100466.44;;;13.50;71.00
51530;BME280;37613;51.788;21.582;2022-09-23T09:39:02;100462.09;;;13.65;72.27
51530;BME280;37613;51.788;21.582;2022-09-23T09:43:04;100461.02;;;13.95;72.08
51530;BME280;37613;51.788;21.582;2022-09-23T09:51:31;100458.60;;;14.29;69.01
51530;BME280;37613;51.788;21.582;2022-09-23T09:55:36;100459.27;;;14.33;68.92
51530;BME280;37613;51.788;21.582;2022-09-23T09:59:37;100451.84;;;14.43;67.33
51530;BME280;37613;51.788;21.582;2022-09-23T10:03:44;100450.07;;;14.53;66.76
51530;BME280;37613;51.788;21.582;2022-09-23T10:07:52;100445.82;;;14.50;65.44
51530;BME280;37613;51.788;21.582;2022-09-23T10:12:07;100444.95;;;14.56;66.08
51530;BME280;37613;51.788;21.582;2022-09-23T10:16:16;100442.42;;;14.61;65.48
51530;BME280;37613;51.788;21.582;2022-09-23T10:20:27;100444.98;;;14.65;65.34
51530;BME280;37613;51.788;21.582;2022-09-23T10:24:36;100441.61;;;14.74;67.07
51530;BME280;37613;51.788;21.582;2022-09-23T10:28:48;100447.20;;;14.78;65.16
51530;BME280;37613;51.788;21.582;2022-09-23T10:32:55;100446.92;;;14.93;65.07
51530;BME280;37613;51.788;21.582;2022-09-23T10:37:00;100442.41;;;15.07;63.67
51530;BME280;37613;51.788;21.582;2022-09-23T10:41:12;100433.77;;;15.06;64.00
51530;BME280;37613;51.788;21.582;2022-09-23T10:45:35;100427.26;;;14.99;64.21
51530;BME280;37613;51.788;21.582;2022-09-23T10:50:59;100427.95;;;14.94;62.89
51530;BME280;37613;51.788;21.582;2022-09-23T10:54:55;100425.45;;;14.92;62.18
51530;BME280;37613;51.788;21.582;2022-09-23T10:59:17;100426.05;;;14.95;61.40
51530;BME280;37613;51.788;21.582;2022-09-23T11:03:39;100425.02;;;14.94;60.72
51530;BME280;37613;51.788;21.582;2022-09-23T11:12:55;100416.49;;;14.99;61.22
51530;BME280;37613;51.788;21.582;2022-09-23T11:21:08;100413.48;;;14.71;61.78
51530;BME280;37613;51.788;21.582;2022-09-23T11:39:18;100395.10;;;14.94;59.83
51530;BME280;37613;51.788;21.582;2022-09-23T11:43:33;100394.50;;;14.75;59.64
51530;BME280;37613;51.788;21.582;2022-09-23T11:47:49;100382.82;;;14.69;60.14
51530;BME280;37613;51.788;21.582;2022-09-23T11:52:07;100385.48;;;14.93;60.09
51530;BME280;37613;51.788;21.582;2022-09-23T11:56:25;100381.84;;;14.97;59.46
51530;BME280;37613;51.788;21.582;2022-09-23T12:00:34;100378.52;;;15.00;58.85
51530;BME280;37613;51.788;21.582;2022-09-23T12:04:39;100370.81;;;14.99;57.79
51530;BME280;37613;51.788;21.582;2022-09-23T12:08:44;100369.44;;;15.01;56.79
51530;BME280;37613;51.788;21.582;2022-09-23T12:13:01;100363.73;;;15.09;57.85
51530;BME280;37613;51.788;21.582;2022-09-23T12:25:43;100351.93;;;15.12;56.97
51530;BME280;37613;51.788;21.582;2022-09-23T12:30:00;100350.03;;;15.11;57.48
51530;BME280;37613;51.788;21.582;2022-09-23T12:34:04;100343.41;;;15.12;56.79
51530;BME280;37613;51.788;21.582;2022-09-23T12:42:23;100332.23;;;15.27;57.07
51530;BME280;37613;51.788;21.582;2022-09-23T12:46:30;100331.36;;;15.30;57.67
51530;BME280;37613;51.788;21.582;2022-09-23T12:50:47;100332.58;;;15.21;56.55
51530;BME280;37613;51.788;21.582;2022-09-23T12:54:55;100339.19;;;14.92;57.31
51530;BME280;37613;51.788;21.582;2022-09-23T13:03:17;100325.70;;;14.68;57.21
51530;BME280;37613;51.788;21.582;2022-09-23T13:07:44;100322.10;;;14.53;57.44
51530;BME280;37613;51.788;21.582;2022-09-23T13:11:50;100322.16;;;14.36;57.69
51530;BME280;37613;51.788;21.582;2022-09-23T13:20:39;100314.43;;;13.94;58.24
51530;BME280;37613;51.788;21.582;2022-09-23T13:24:51;100313.44;;;13.84;58.31
51530;BME280;37613;51.788;21.582;2022-09-23T13:29:00;100301.21;;;13.90;58.49
51530;BME280;37613;51.788;21.582;2022-09-23T13:34:00;100294.56;;;14.07;57.84
51530;BME280;37613;51.788;21.582;2022-09-23T13:37:45;100288.27;;;14.26;56.88
51530;BME280;37613;51.788;21.582;2022-09-23T13:42:09;100284.91;;;14.45;57.25
51530;BME280;37613;51.788;21.582;2022-09-23T13:46:21;100292.23;;;14.57;57.06
51530;BME280;37613;51.788;21.582;2022-09-23T13:50:32;100293.61;;;14.60;57.19
51530;BME280;37613;51.788;21.582;2022-09-23T13:54:48;100294.02;;;14.59;55.37
51530;BME280;37613;51.788;21.582;2022-09-23T13:58:50;100291.77;;;14.50;56.16
51530;BME280;37613;51.788;21.582;2022-09-23T14:03:02;100283.58;;;14.43;56.56
51530;BME280;37613;51.788;21.582;2022-09-23T14:07:08;100280.34;;;14.49;57.10
51530;BME280;37613;51.788;21.582;2022-09-23T14:11:16;100276.96;;;14.45;56.88
51530;BME280;37613;51.788;21.582;2022-09-23T14:15:25;100279.81;;;14.34;57.04
51530;BME280;37613;51.788;21.582;2022-09-23T14:19:30;100280.80;;;14.20;57.40
51530;BME280;37613;51.788;21.582;2022-09-23T14:23:35;100281.83;;;14.03;57.30
51530;BME280;37613;51.788;21.582;2022-09-23T14:27:47;100280.38;;;13.85;57.50
51530;BME280;37613;51.788;21.582;2022-09-23T14:31:55;100278.73;;;13.76;57.80
51530;BME280;37613;51.788;21.582;2022-09-23T14:36:14;100274.77;;;13.69;58.06
51530;BME280;37613;51.788;21.582;2022-09-23T14:40:58;100275.28;;;13.60;57.87
51530;BME280;37613;51.788;21.582;2022-09-23T14:45:22;100271.31;;;13.45;58.06
51530;BME280;37613;51.788;21.582;2022-09-23T14:49:28;100266.40;;;13.35;58.01
51530;BME280;37613;51.788;21.582;2022-09-23T14:54:20;100260.66;;;13.30;58.16
51530;BME280;37613;51.788;21.582;2022-09-23T14:58:22;100254.45;;;13.32;58.56
51530;BME280;37613;51.788;21.582;2022-09-23T15:02:34;100255.04;;;13.37;58.82
51530;BME280;37613;51.788;21.582;2022-09-23T15:06:45;100261.33;;;13.43;58.95
51530;BME280;37613;51.788;21.582;2022-09-23T15:10:51;100249.61;;;13.32;58.91
51530;BME280;37613;51.788;21.582;2022-09-23T15:14:57;100252.95;;;13.25;59.01
51530;BME280;37613;51.788;21.582;2022-09-23T15:18:59;100254.61;;;13.15;59.24
51530;BME280;37613;51.788;21.582;2022-09-23T15:23:05;100255.60;;;13.03;59.32
51530;BME280;37613;51.788;21.582;2022-09-23T15:31:34;100254.63;;;12.78;59.69
51530;BME280;37613;51.788;21.582;2022-09-23T15:35:52;100252.15;;;12.69;59.88
51530;BME280;37613;51.788;21.582;2022-09-23T15:39:59;100246.21;;;12.59;59.85
51530;BME280;37613;51.788;21.582;2022-09-23T15:44:16;100247.80;;;12.45;60.20
51530;BME280;37613;51.788;21.582;2022-09-23T15:53:44;100249.29;;;12.12;60.82
51530;BME280;37613;51.788;21.582;2022-09-23T15:57:55;100246.52;;;11.97;60.89
51530;BME280;37613;51.788;21.582;2022-09-23T16:06:38;100251.05;;;11.68;61.76
51530;BME280;37613;51.788;21.582;2022-09-23T16:10:47;100257.77;;;11.48;62.04
51530;BME280;37613;51.788;21.582;2022-09-23T16:15:11;100255.69;;;11.27;62.25
51530;BME280;37613;51.788;21.582;2022-09-23T16:19:50;100255.48;;;11.05;62.50
51530;BME280;37613;51.788;21.582;2022-09-23T16:23:55;100256.86;;;10.79;62.86
51530;BME280;37613;51.788;21.582;2022-09-23T16:43:15;100277.59;;;9.86;63.61
51530;BME280;37613;51.788;21.582;2022-09-23T16:57:50;100270.86;;;9.22;64.47
51530;BME280;37613;51.788;21.582;2022-09-23T17:02:37;100267.83;;;9.04;64.79
51530;BME280;37613;51.788;21.582;2022-09-23T17:17:27;100260.84;;;8.58;65.55
51530;BME280;37613;51.788;21.582;2022-09-23T17:31:49;100262.92;;;8.23;66.28
51530;BME280;37613;51.788;21.582;2022-09-23T17:36:48;100261.78;;;8.12;66.55
51530;BME280;37613;51.788;21.582;2022-09-23T17:51:24;100267.71;;;7.79;67.02
51530;BME280;37613;51.788;21.582;2022-09-23T17:56:18;100268.91;;;7.69;67.27
51530;BME280;37613;51.788;21.582;2022-09-23T18:11:34;100267.85;;;7.47;67.67
51530;BME280;37613;51.788;21.582;2022-09-23T18:16:16;100268.03;;;7.37;67.76
51530;BME280;37613;51.788;21.582;2022-09-23T18:21:14;100274.53;;;7.25;67.74
51530;BME280;37613;51.788;21.582;2022-09-23T18:31:20;100279.25;;;6.98;68.14
51530;BME280;37613;51.788;21.582;2022-09-23T18:36:12;100276.84;;;6.85;68.33
51530;BME280;37613;51.788;21.582;2022-09-23T18:51:02;100265.05;;;6.55;68.87
51530;BME280;37613;51.788;21.582;2022-09-23T18:56:25;100267.23;;;6.50;68.97
51530;BME280;37613;51.788;21.582;2022-09-23T19:10:13;100267.30;;;6.32;69.43
51530;BME280;37613;51.788;21.582;2022-09-23T19:15:17;100272.13;;;6.30;69.67
51530;BME280;37613;51.788;21.582;2022-09-23T19:25:02;100268.11;;;6.16;69.70
51530;BME280;37613;51.788;21.582;2022-09-23T19:30:01;100276.22;;;6.17;69.92
51530;BME280;37613;51.788;21.582;2022-09-23T19:48:54;100276.25;;;6.02;70.19
51530;BME280;37613;51.788;21.582;2022-09-23T19:58:35;100277.20;;;5.96;70.41
51530;BME280;37613;51.788;21.582;2022-09-23T20:13:30;100283.93;;;5.87;70.94
51530;BME280;37613;51.788;21.582;2022-09-23T20:18:29;100283.25;;;5.89;71.16
51530;BME280;37613;51.788;21.582;2022-09-23T20:23:27;100277.80;;;5.93;71.54
51530;BME280;37613;51.788;21.582;2022-09-23T20:28:22;100276.20;;;6.00;71.88
51530;BME280;37613;51.788;21.582;2022-09-23T20:33:07;100280.20;;;6.07;72.14
51530;BME280;37613;51.788;21.582;2022-09-23T20:52:44;100264.08;;;6.30;72.51
51530;BME280;37613;51.788;21.582;2022-09-23T20:57:42;100266.05;;;6.31;72.49
51530;BME280;37613;51.788;21.582;2022-09-23T21:02:10;100261.73;;;6.31;72.60
51530;BME280;37613;51.788;21.582;2022-09-23T21:07:11;100261.66;;;6.29;72.74
51530;BME280;37613;51.788;21.582;2022-09-23T21:12:09;100259.13;;;6.27;72.79
51530;BME280;37613;51.788;21.582;2022-09-23T21:17:13;100259.16;;;6.24;72.90
51530;BME280;37613;51.788;21.582;2022-09-23T21:36:34;100261.63;;;6.01;73.03
51530;BME280;37613;51.788;21.582;2022-09-23T21:46:16;100265.52;;;5.85;73.07
51530;BME280;37613;51.788;21.582;2022-09-23T21:55:59;100261.94;;;5.71;73.15
51530;BME280;37613;51.788;21.582;2022-09-23T22:11:04;100261.95;;;5.48;73.22
51530;BME280;37613;51.788;21.582;2022-09-23T22:16:07;100262.58;;;5.41;73.43
51530;BME280;37613;51.788;21.582;2022-09-23T22:21:11;100268.24;;;5.46;74.09
51530;BME280;37613;51.788;21.582;2022-09-23T22:25:55;100264.20;;;6.14;74.59
51530;BME280;37613;51.788;21.582;2022-09-23T22:30:41;100263.85;;;6.51;73.78
51530;BME280;37613;51.788;21.582;2022-09-23T22:35:22;100262.67;;;6.50;73.59
51530;BME280;37613;51.788;21.582;2022-09-23T22:40:14;100257.16;;;6.45;73.66
51530;BME280;37613;51.788;21.582;2022-09-23T22:45:18;100255.57;;;6.38;73.84
51530;BME280;37613;51.788;21.582;2022-09-23T22:50:08;100256.02;;;6.33;74.07
51530;BME280;37613;51.788;21.582;2022-09-23T23:14:04;100233.26;;;6.21;74.70
51530;BME280;37613;51.788;21.582;2022-09-23T23:19:14;100228.90;;;6.13;74.70
51530;BME280;37613;51.788;21.582;2022-09-23T23:24:02;100224.63;;;6.03;74.63
51530;BME280;37613;51.788;21.582;2022-09-23T23:28:49;100228.33;;;5.92;74.53
51530;BME280;37613;51.788;21.582;2022-09-23T23:47:52;100226.21;;;5.34;74.57
51530;BME280;37613;51.788;21.582;2022-09-23T23:57:53;100215.45;;;5.08;74.71
